Time;durP1;ratioP1;P1;durP2;ratioP2;P2;SDS_P1;SDS_P2;PMS_P1;PMS_P2;Temp;Humidity;BMP_temperature;BMP_pressure;BME280_temperature;BME280_humidity;BME280_pressure;Samples;Min_cycle;Max_cycle;Signal;HPM_P1;HPM_P2
2022/03/11 00:01:10;;;;;;;57.60;16.50;;;;;;;3.97;100.00;98569.97;5006223;28;20079;-59
2022/03/11 00:03:35;;;;;;;59.30;16.92;;;;;;;4.13;100.00;98572.47;5006163;28;20032;-59
2022/03/11 00:06:01;;;;;;;55.88;15.73;;;;;;;4.02;100.00;98583.69;5006314;28;20033;-57
2022/03/11 00:08:26;;;;;;;61.33;17.77;;;;;;;3.89;100.00;98576.03;5006436;28;20117;-59
2022/03/11 00:10:52;;;;;;;50.55;14.88;;;;;;;3.93;100.00;98570.00;5005067;28;20052;-58
2022/03/11 00:13:17;;;;;;;52.88;15.25;;;;;;;3.94;100.00;98575.16;5005604;28;20030;-59
2022/03/11 00:15:42;;;;;;;52.45;15.65;;;;;;;3.84;100.00;98568.31;5004356;28;20687;-59
2022/03/11 00:18:08;;;;;;;53.83;15.50;;;;;;;3.73;100.00;98575.25;5004120;28;20695;-57
2022/03/11 00:20:34;;;;;;;53.63;14.85;;;;;;;3.85;100.00;98580.34;5004240;28;20046;-59
2022/03/11 00:22:59;;;;;;;61.15;17.75;;;;;;;3.86;100.00;98571.75;5006123;28;20483;-58
2022/03/11 00:25:25;;;;;;;43.00;12.70;;;;;;;3.83;100.00;98572.63;5004213;28;20036;-59
2022/03/11 00:27:51;;;;;;;56.45;17.80;;;;;;;3.69;100.00;98570.97;5007922;28;20506;-58
2022/03/11 00:30:17;;;;;;;67.07;17.63;;;;;;;3.66;100.00;98574.44;5008098;28;20227;-58
2022/03/11 00:32:42;;;;;;;52.35;16.35;;;;;;;3.58;100.00;98577.00;5004314;28;20119;-57
2022/03/11 00:35:09;;;;;;;63.55;17.10;;;;;;;3.62;100.00;98567.53;5003879;28;20029;-59
2022/03/11 00:37:39;;;;;;;48.08;14.63;;;;;;;3.67;100.00;98569.25;5007269;28;20108;-58
2022/03/11 00:40:07;;;;;;;63.30;17.77;;;;;;;3.49;100.00;98566.72;5005028;28;20041;-59
2022/03/11 00:42:33;;;;;;;56.38;17.40;;;;;;;3.39;100.00;98559.91;5004910;28;20112;-59
2022/03/11 00:44:59;;;;;;;64.85;18.67;;;;;;;3.33;98.23;98565.06;5004725;28;20032;-57
2022/03/11 00:47:24;;;;;;;59.55;17.45;;;;;;;3.67;100.00;98561.50;5003574;28;20041;-59
2022/03/11 00:49:49;;;;;;;56.20;15.32;;;;;;;3.74;100.00;98564.06;5006333;28;20025;-59
2022/03/11 00:52:15;;;;;;;60.10;17.70;;;;;;;3.35;92.13;98558.22;5005937;28;20561;-58
2022/03/11 00:54:40;;;;;;;56.42;16.50;;;;;;;3.18;90.71;98555.66;5004777;28;20038;-58
2022/03/11 00:57:05;;;;;;;60.30;17.17;;;;;;;3.33;92.70;98549.59;5005691;28;20038;-58
2022/03/11 00:59:31;;;;;;;53.65;14.55;;;;;;;3.40;100.00;98551.28;5005735;28;20112;-60
2022/03/11 01:01:56;;;;;;;57.67;16.02;;;;;;;3.40;100.00;98547.00;5004831;28;20501;-59
2022/03/11 01:04:22;;;;;;;56.97;16.50;;;;;;;3.11;96.30;98549.66;5006660;28;20017;-60
2022/03/11 01:06:47;;;;;;;55.45;16.00;;;;;;;3.41;94.35;98551.28;5003538;28;20041;-57
2022/03/11 01:09:12;;;;;;;52.83;13.93;;;;;;;3.22;100.00;98553.06;5005912;28;20145;-59
2022/03/11 01:11:38;;;;;;;61.53;16.50;;;;;;;3.02;90.93;98549.69;5005685;28;20037;-59
2022/03/11 01:14:04;;;;;;;47.92;15.27;;;;;;;3.45;100.00;98549.56;5004685;28;20028;-58
2022/03/11 01:16:30;;;;;;;49.28;14.65;;;;;;;3.46;100.00;98546.13;5003646;28;20045;-59
2022/03/11 01:18:55;;;;;;;60.35;16.75;;;;;;;3.24;100.00;98551.34;5008718;28;20049;-59
2022/03/11 01:21:21;;;;;;;51.25;15.32;;;;;;;3.26;100.00;98549.63;5007386;28;20688;-58
2022/03/11 01:23:46;;;;;;;57.08;15.63;;;;;;;3.22;100.00;98547.91;5008215;28;20028;-57
2022/03/11 01:26:12;;;;;;;48.70;14.00;;;;;;;3.14;100.00;98552.22;5008929;28;20038;-58
2022/03/11 01:28:42;;;;;;;56.17;16.67;;;;;;;2.91;100.00;98552.28;5009213;28;20029;-59
2022/03/11 01:31:11;;;;;;;58.05;15.10;;;;;;;3.05;100.00;98544.50;5008795;28;20053;-58
2022/03/11 01:33:41;;;;;;;59.63;14.90;;;;;;;3.40;100.00;98534.13;5008700;28;20120;-57
2022/03/11 01:36:08;;;;;;;46.13;14.52;;;;;;;3.03;100.00;98539.38;5007083;28;20050;-57
2022/03/11 01:38:33;;;;;;;49.42;14.32;;;;;;;3.15;100.00;98538.47;5008595;28;20029;-59
2022/03/11 01:40:58;;;;;;;50.90;14.38;;;;;;;2.99;97.71;98534.22;5008876;28;20044;-59
2022/03/11 01:43:24;;;;;;;49.88;14.75;;;;;;;3.13;97.42;98537.63;5009065;28;20024;-59
2022/03/11 01:45:49;;;;;;;46.38;13.98;;;;;;;2.87;87.70;98535.97;5008640;28;20050;-59
2022/03/11 01:48:14;;;;;;;50.75;14.75;;;;;;;2.99;100.00;98532.50;5006829;28;20064;-58
2022/03/11 01:50:41;;;;;;;53.10;14.55;;;;;;;2.94;95.23;98533.38;5006677;28;20070;-57
2022/03/11 01:53:11;;;;;;;51.55;15.02;;;;;;;2.94;92.46;98526.53;5006566;28;20084;-57
2022/03/11 01:55:37;;;;;;;52.28;14.73;;;;;;;2.87;86.15;98532.53;5006987;28;20214;-58
2022/03/11 01:58:05;;;;;;;55.70;14.40;;;;;;;2.76;96.66;98527.41;5007828;28;20022;-58
2022/03/11 02:00:31;;;;;;;46.08;11.20;;;;;;;2.75;97.81;98525.66;5008984;28;20037;-57
2022/03/11 02:02:57;;;;;;;57.97;13.98;;;;;;;2.69;94.18;98520.53;5008613;28;20113;-56
2022/03/11 02:05:24;;;;;;;46.58;12.75;;;;;;;2.45;100.00;98521.41;5008118;28;20932;-58
2022/03/11 02:07:49;;;;;;;54.47;14.43;;;;;;;2.44;93.47;98525.69;5007537;28;20029;-57
2022/03/11 02:10:15;;;;;;;45.17;9.65;;;;;;;2.94;100.00;98520.47;5007548;28;20036;-57
2022/03/11 02:12:41;;;;;;;50.65;12.88;;;;;;;2.55;100.00;98514.53;5007012;28;20150;-58
2022/03/11 02:15:09;;;;;;;44.85;11.48;;;;;;;2.31;100.00;98521.41;5007926;28;20034;-56
2022/03/11 02:17:34;;;;;;;38.28;8.48;;;;;;;2.60;100.00;98513.66;5008318;28;20018;-57
2022/03/11 02:20:00;;;;;;;40.95;8.85;;;;;;;2.85;100.00;98521.38;5008411;28;20075;-58
2022/03/11 02:22:25;;;;;;;44.10;9.68;;;;;;;3.10;100.00;98517.00;5006209;28;20176;-57
2022/03/11 02:24:53;;;;;;;61.63;11.07;;;;;;;2.64;100.00;98522.25;5007486;28;20079;-58
2022/03/11 02:27:18;;;;;;;50.38;11.73;;;;;;;2.59;100.00;98527.41;5006025;28;20054;-58
2022/03/11 02:29:43;;;;;;;45.88;10.85;;;;;;;2.44;100.00;98527.41;5009066;28;20022;-59
2022/03/11 02:32:09;;;;;;;38.55;8.80;;;;;;;2.63;100.00;98525.72;5006201;28;20036;-57
2022/03/11 02:34:37;;;;;;;44.22;9.80;;;;;;;2.72;100.00;98523.13;5008804;28;20762;-58
2022/03/11 02:37:03;;;;;;;41.85;9.73;;;;;;;2.88;100.00;98522.22;5005860;28;20088;-58
2022/03/11 02:39:28;;;;;;;45.10;11.27;;;;;;;2.63;100.00;98520.56;5008236;28;20061;-57
2022/03/11 02:41:54;;;;;;;47.58;12.45;;;;;;;2.08;100.00;98522.25;5006059;28;20141;-58
2022/03/11 02:44:19;;;;;;;51.58;13.52;;;;;;;1.98;100.00;98528.22;5007305;28;20013;-58
2022/03/11 02:46:44;;;;;;;41.75;10.48;;;;;;;1.90;100.00;98517.06;5005544;28;20041;-57
2022/03/11 02:49:10;;;;;;;43.97;11.88;;;;;;;1.84;100.00;98507.63;5007326;28;20121;-58
2022/03/11 02:51:35;;;;;;;48.90;12.45;;;;;;;1.54;100.00;98504.13;5007422;28;20041;-57
2022/03/11 02:54:00;;;;;;;53.88;12.05;;;;;;;1.53;100.00;98517.81;5008309;28;20456;-58
2022/03/11 02:56:26;;;;;;;44.17;10.63;;;;;;;1.63;100.00;98502.41;5005702;28;20504;-56
2022/03/11 02:58:51;;;;;;;49.85;13.38;;;;;;;1.41;98.24;98506.63;5007713;28;20113;-58
2022/03/11 03:01:16;;;;;;;49.35;11.50;;;;;;;1.38;100.00;98506.59;5008430;28;20048;-58
2022/03/11 03:03:42;;;;;;;49.15;11.80;;;;;;;1.63;100.00;98503.28;5006743;28;20025;-59
2022/03/11 03:06:07;;;;;;;47.13;11.73;;;;;;;1.45;100.00;98498.94;5007041;28;20041;-57
2022/03/11 03:08:33;;;;;;;51.63;11.38;;;;;;;1.44;99.15;98496.38;5006616;28;20037;-58
2022/03/11 03:10:58;;;;;;;43.90;10.98;;;;;;;1.48;100.00;98478.38;5008340;28;20037;-58
2022/03/11 03:13:24;;;;;;;45.80;10.77;;;;;;;1.33;91.99;98489.47;5009657;28;20224;-58
2022/03/11 03:15:49;;;;;;;52.60;12.02;;;;;;;1.26;86.76;98495.44;5006215;28;20034;-57
2022/03/11 03:18:15;;;;;;;50.75;11.70;;;;;;;1.28;81.11;98491.16;5006397;28;20040;-57
2022/03/11 03:20:41;;;;;;;47.78;11.52;;;;;;;1.40;86.57;98489.47;5005775;28;20049;-58
2022/03/11 03:23:07;;;;;;;48.50;11.23;;;;;;;1.12;95.39;98484.22;5006499;28;20689;-58
2022/03/11 03:25:32;;;;;;;46.47;10.77;;;;;;;1.23;83.74;98487.72;5006314;28;20583;-57
2022/03/11 03:27:58;;;;;;;44.83;10.43;;;;;;;1.25;77.33;98480.88;5003294;28;20036;-58
2022/03/11 03:30:23;;;;;;;46.65;10.63;;;;;;;1.34;80.17;98483.50;5005885;28;20037;-58
2022/03/11 03:32:48;;;;;;;49.45;10.38;;;;;;;1.47;77.72;98478.38;5007355;28;20052;-58
2022/03/11 03:35:14;;;;;;;41.15;8.95;;;;;;;1.33;84.23;98478.34;5007223;28;20026;-57
2022/03/11 03:37:40;;;;;;;43.75;9.73;;;;;;;1.27;91.50;98484.31;5007086;28;20030;-57
2022/03/11 03:40:07;;;;;;;45.67;10.20;;;;;;;1.11;86.35;98487.66;5006097;28;20120;-59
2022/03/11 03:42:33;;;;;;;52.92;10.50;;;;;;;1.24;91.93;98476.59;5007024;28;20026;-57
2022/03/11 03:44:59;;;;;;;61.05;10.82;;;;;;;1.40;97.40;98479.19;5007670;28;20040;-58
2022/03/11 03:47:24;;;;;;;46.45;10.27;;;;;;;1.10;79.77;98483.38;5006365;28;20041;-59
2022/03/11 03:49:49;;;;;;;46.75;9.73;;;;;;;1.13;77.54;98471.41;5008203;28;20030;-58
2022/03/11 03:52:15;;;;;;;50.13;10.48;;;;;;;1.03;75.47;98471.34;5005467;28;20034;-57
2022/03/11 03:54:40;;;;;;;43.83;9.40;;;;;;;1.03;77.91;98479.06;5005189;28;20117;-58
2022/03/11 03:57:06;;;;;;;48.97;9.68;;;;;;;0.93;69.91;98473.88;5004928;28;20520;-58
2022/03/11 03:59:32;;;;;;;44.85;9.68;;;;;;;1.10;78.59;98478.22;5004865;28;20022;-57
2022/03/11 04:01:57;;;;;;;42.40;9.10;;;;;;;0.93;89.68;98473.88;5005035;28;20040;-57
2022/03/11 04:04:23;;;;;;;45.20;9.00;;;;;;;0.96;82.07;98473.91;5006227;28;20594;-58
2022/03/11 04:06:48;;;;;;;44.53;9.57;;;;;;;0.81;83.37;98472.94;5002691;28;20085;-58
2022/03/11 04:09:14;;;;;;;51.90;10.20;;;;;;;1.03;80.17;98479.06;5004939;28;20607;-59
2022/03/11 04:11:40;;;;;;;41.17;9.18;;;;;;;1.04;85.04;98476.50;5007535;28;20602;-58
2022/03/11 04:14:06;;;;;;;38.33;8.90;;;;;;;0.81;77.28;98472.94;5003973;28;20078;-58
2022/03/11 04:16:31;;;;;;;38.17;8.68;;;;;;;0.86;90.16;98472.13;5005245;28;20030;-58
2022/03/11 04:18:57;;;;;;;40.30;9.13;;;;;;;0.79;79.79;98469.50;5006474;28;20079;-58
2022/03/11 04:21:22;;;;;;;47.70;9.95;;;;;;;0.68;78.94;98477.16;5004957;28;20049;-57
2022/03/11 04:23:50;;;;;;;45.90;10.02;;;;;;;0.58;79.91;98474.53;5006107;28;20055;-58
2022/03/11 04:26:16;;;;;;;41.83;9.15;;;;;;;0.61;89.73;98475.38;5007138;28;20041;-58
2022/03/11 04:28:41;;;;;;;46.90;9.98;;;;;;;0.61;79.09;98476.25;5004934;28;20040;-57
2022/03/11 04:31:08;;;;;;;38.33;9.20;;;;;;;0.67;79.11;98476.28;5007266;28;20584;-57
2022/03/11 04:33:34;;;;;;;47.50;9.32;;;;;;;0.60;78.20;98477.09;5008059;28;20100;-58
2022/03/11 04:36:00;;;;;;;53.67;9.60;;;;;;;0.27;76.44;98470.88;5004375;28;20120;-57
2022/03/11 04:38:26;;;;;;;44.78;9.43;;;;;;;0.39;85.84;98475.25;5004697;28;20109;-58
2022/03/11 04:40:51;;;;;;;40.35;8.88;;;;;;;0.23;82.81;98476.00;5004559;28;20275;-58
2022/03/11 04:43:16;;;;;;;41.58;8.93;;;;;;;0.49;86.30;98465.91;5003016;28;20053;-59
2022/03/11 04:45:42;;;;;;;41.72;8.30;;;;;;;0.43;84.99;98464.16;5003618;28;20040;-58
2022/03/11 04:48:07;;;;;;;54.25;9.90;;;;;;;0.43;88.96;98469.28;5004735;28;20486;-57
2022/03/11 04:50:33;;;;;;;49.10;9.02;;;;;;;0.68;100.00;98465.19;5003660;28;20041;-56
2022/03/11 04:52:58;;;;;;;43.55;9.00;;;;;;;0.45;89.95;98459.91;5005909;28;20029;-57
2022/03/11 04:55:24;;;;;;;44.85;9.10;;;;;;;0.66;87.01;98458.31;5001256;28;20036;-57
2022/03/11 04:57:49;;;;;;;46.63;8.55;;;;;;;0.48;91.10;98457.34;5004001;28;20053;-57
2022/03/11 05:00:15;;;;;;;38.58;7.40;;;;;;;0.81;100.00;98455.84;5004610;28;20049;-57
2022/03/11 05:02:44;;;;;;;44.25;8.88;;;;;;;0.66;89.70;98458.31;5005343;28;20021;-58
2022/03/11 05:05:11;;;;;;;42.78;8.70;;;;;;;0.69;94.16;98463.47;5002178;28;20026;-57
2022/03/11 05:07:36;;;;;;;38.55;7.93;;;;;;;0.81;100.00;98457.53;5005851;28;20037;-57
2022/03/11 05:10:02;;;;;;;46.03;8.85;;;;;;;0.68;88.90;98462.63;5006534;28;20029;-58
2022/03/11 05:12:27;;;;;;;40.95;8.52;;;;;;;0.73;87.54;98460.06;5006193;28;20089;-58
2022/03/11 05:14:53;;;;;;;57.15;9.93;;;;;;;0.31;84.22;98461.50;5004141;28;20030;-57
2022/03/11 05:17:19;;;;;;;40.72;9.18;;;;;;;0.39;81.73;98459.88;5005363;28;20518;-57
2022/03/11 05:19:44;;;;;;;40.33;9.00;;;;;;;0.14;76.50;98451.13;5004133;28;20694;-58
2022/03/11 05:22:11;;;;;;;42.88;8.68;;;;;;;0.04;76.49;98460.44;5005508;28;20041;-58
2022/03/11 05:24:37;;;;;;;39.15;8.43;;;;;;;0.00;79.52;98453.59;5006984;28;20036;-58
2022/03/11 05:27:02;;;;;;;54.10;9.45;;;;;;;-0.03;78.04;98456.13;5003947;28;20038;-58
2022/03/11 05:29:28;;;;;;;46.22;8.85;;;;;;;-0.20;71.10;98455.97;5004875;28;20029;-58
2022/03/11 05:31:54;;;;;;;44.03;8.35;;;;;;;0.03;73.22;98456.16;5003123;28;20042;-57
2022/03/11 05:34:19;;;;;;;47.30;8.63;;;;;;;0.09;93.63;98456.22;5006402;28;20057;-57
2022/03/11 05:36:44;;;;;;;41.75;8.60;;;;;;;0.03;82.90;98463.00;5005004;28;20112;-57
2022/03/11 05:39:10;;;;;;;41.30;8.27;;;;;;;-0.06;88.26;98468.91;5005803;28;20025;-57
2022/03/11 05:41:35;;;;;;;46.58;8.95;;;;;;;-0.10;76.59;98469.72;5003946;28;20065;-58
2022/03/11 05:44:00;;;;;;;37.33;8.20;;;;;;;0.22;79.21;98467.44;5003353;28;20109;-57
2022/03/11 05:46:25;;;;;;;41.45;8.57;;;;;;;0.00;74.86;98461.28;5004510;28;20396;-58
2022/03/11 05:48:51;;;;;;;47.67;8.95;;;;;;;0.02;73.02;98458.69;5003493;28;20579;-57
2022/03/11 05:51:16;;;;;;;41.42;8.77;;;;;;;-0.21;68.96;98454.22;5003780;28;20494;-58
2022/03/11 05:53:41;;;;;;;47.05;8.60;;;;;;;-0.05;67.30;98458.66;5004082;28;20033;-56
2022/03/11 05:56:07;;;;;;;42.22;8.73;;;;;;;0.08;67.73;98469.03;5001867;28;20053;-57
2022/03/11 05:58:32;;;;;;;39.20;8.25;;;;;;;0.08;70.52;98469.88;5005287;28;20033;-58
2022/03/11 06:00:57;;;;;;;42.97;8.40;;;;;;;0.35;68.92;98474.38;5005512;28;20826;-57
2022/03/11 06:03:23;;;;;;;47.70;8.50;;;;;;;1.09;63.04;98479.09;5007365;28;20013;-56
2022/03/11 06:05:48;;;;;;;38.83;8.18;;;;;;;2.16;62.36;98477.63;5007013;28;20068;-57
2022/03/11 06:08:13;;;;;;;43.88;8.25;;;;;;;3.26;63.82;98471.44;5009732;28;20021;-57
2022/03/11 06:10:39;;;;;;;41.67;9.07;;;;;;;3.30;55.40;98474.84;5007710;28;20041;-58
2022/03/11 06:13:04;;;;;;;41.38;8.23;;;;;;;4.44;52.96;98473.22;5009672;28;20029;-59
2022/03/11 06:15:29;;;;;;;47.85;9.00;;;;;;;5.67;52.26;98475.34;5002530;28;20057;-58
2022/03/11 06:17:55;;;;;;;42.58;8.60;;;;;;;5.17;47.92;98475.94;5005019;28;20026;-58
2022/03/11 06:20:21;;;;;;;37.42;8.40;;;;;;;7.50;46.87;98467.88;5008171;28;20061;-59
2022/03/11 06:22:52;;;;;;;34.72;8.05;;;;;;;7.01;44.24;98468.84;5007533;28;20032;-58
2022/03/11 06:25:17;;;;;;;34.55;8.52;;;;;;;7.98;42.93;98477.22;5005416;28;20029;-58
2022/03/11 06:27:43;;;;;;;42.25;8.57;;;;;;;7.03;39.99;98479.19;5006892;28;20022;-59
2022/03/11 06:30:08;;;;;;;39.33;8.65;;;;;;;9.10;41.48;98480.50;5003830;28;20614;-59
2022/03/11 06:32:44;;;;;;;41.40;8.45;;;;;;;9.60;46.01;98480.84;5008480;28;20510;-58
2022/03/11 06:35:13;;;;;;;33.95;8.50;;;;;;;7.01;37.73;98479.22;5005821;28;20116;-59
2022/03/11 06:37:42;;;;;;;41.45;8.63;;;;;;;6.87;38.34;98478.63;5005896;28;20018;-58
2022/03/11 06:40:08;;;;;;;40.97;9.20;;;;;;;7.45;35.94;98481.84;5007470;28;20037;-58
2022/03/11 06:42:39;;;;;;;29.15;8.07;;;;;;;7.94;35.81;98479.91;5007222;28;20095;-58
2022/03/11 06:45:06;;;;;;;37.60;9.32;;;;;;;10.30;33.65;98488.25;5006424;28;20477;-58
2022/03/11 06:47:32;;;;;;;41.97;9.02;;;;;;;8.58;35.44;98488.78;5007675;28;20098;-57
2022/03/11 06:49:57;;;;;;;35.30;9.02;;;;;;;9.33;34.76;98488.53;5009216;28;20022;-59
2022/03/11 06:52:22;;;;;;;34.80;9.02;;;;;;;11.92;31.16;98469.53;5007127;28;20052;-59
2022/03/11 06:54:48;;;;;;;45.85;10.20;;;;;;;9.24;33.38;98486.19;5008351;28;20048;-57
2022/03/11 06:57:15;;;;;;;31.45;9.23;;;;;;;10.80;31.63;98482.28;5005523;28;20180;-60
2022/03/11 06:59:42;;;;;;;34.58;9.23;;;;;;;10.14;33.00;98482.66;5006918;28;20033;-57
2022/03/11 07:02:08;;;;;;;33.88;7.60;;;;;;;11.04;54.63;98480.56;5009113;28;20057;-57
2022/03/11 07:04:34;;;;;;;30.10;8.65;;;;;;;9.78;33.45;98485.50;5007888;28;20017;-58
2022/03/11 07:06:59;;;;;;;32.97;8.35;;;;;;;11.41;33.05;98475.78;5005560;28;20048;-58
2022/03/11 07:09:25;;;;;;;34.95;8.05;;;;;;;11.01;39.28;98475.47;5006614;28;20044;-57
2022/03/11 07:11:51;;;;;;;25.48;7.25;;;;;;;11.22;39.79;98481.69;5011276;28;20038;-58
2022/03/11 07:14:16;;;;;;;37.75;9.68;;;;;;;10.58;32.30;98483.00;5006931;28;20602;-58
2022/03/11 07:16:41;;;;;;;26.73;8.13;;;;;;;11.33;35.29;98482.16;5005444;28;20037;-58
2022/03/11 07:19:08;;;;;;;29.83;8.45;;;;;;;12.61;33.64;98489.44;5006296;28;20125;-58
2022/03/11 07:21:33;;;;;;;28.05;7.90;;;;;;;13.34;38.16;98480.22;5008684;28;20040;-58
2022/03/11 07:23:59;;;;;;;30.02;8.35;;;;;;;13.62;32.16;98485.09;5006333;28;20057;-58
2022/03/11 07:26:24;;;;;;;33.67;7.90;;;;;;;12.57;33.23;98477.41;5006874;28;20115;-56
2022/03/11 07:28:49;;;;;;;25.85;8.25;;;;;;;13.35;30.91;98475.88;5005900;28;20508;-59
2022/03/11 07:31:15;;;;;;;31.50;8.45;;;;;;;12.62;30.00;98483.31;5005594;28;20062;-58
2022/03/11 07:33:40;;;;;;;26.20;7.97;;;;;;;15.21;28.58;98469.50;5007979;28;20032;-57
2022/03/11 07:36:05;;;;;;;33.65;9.00;;;;;;;14.43;28.31;98475.16;5005512;28;20121;-59
2022/03/11 07:38:31;;;;;;;25.88;8.02;;;;;;;11.96;28.93;98484.19;5010864;28;20021;-57
2022/03/11 07:40:58;;;;;;;28.33;8.90;;;;;;;11.43;30.26;98484.41;5006839;28;20065;-57
2022/03/11 07:43:25;;;;;;;28.20;8.27;;;;;;;14.14;28.66;98475.72;5006944;28;20018;-57
2022/03/11 07:45:51;;;;;;;22.30;7.50;;;;;;;12.82;30.06;98483.31;5004390;28;20042;-58
2022/03/11 07:48:18;;;;;;;28.95;8.30;;;;;;;14.80;29.32;98481.22;5007361;28;20037;-58
2022/03/11 07:50:44;;;;;;;25.23;7.65;;;;;;;13.38;27.69;98480.94;5007368;28;20395;-58
2022/03/11 07:53:09;;;;;;;26.17;8.23;;;;;;;13.67;27.85;98487.50;5005014;28;20026;-58
2022/03/11 07:55:35;;;;;;;24.98;7.43;;;;;;;17.82;25.46;98480.00;5004804;28;20116;-58
2022/03/11 07:58:00;;;;;;;24.23;8.02;;;;;;;14.26;26.49;98480.34;5006223;28;20034;-58
2022/03/11 08:00:26;;;;;;;22.85;7.90;;;;;;;16.13;24.89;98490.00;5006946;28;20083;-59
2022/03/11 08:02:51;;;;;;;25.70;7.95;;;;;;;13.00;28.65;98491.31;5007623;28;20107;-58
2022/03/11 08:05:17;;;;;;;23.70;8.02;;;;;;;15.56;26.21;98486.03;5004818;28;20099;-57
2022/03/11 08:07:50;;;;;;;30.40;8.30;;;;;;;13.13;27.92;98486.41;5004140;28;20766;-56
2022/03/11 08:10:19;;;;;;;29.98;8.30;;;;;;;14.47;26.66;98488.97;5004441;28;20046;-57
2022/03/11 08:12:44;;;;;;;32.03;8.93;;;;;;;14.30;26.74;98479.31;5004242;28;20064;-59
2022/03/11 08:15:14;;;;;;;24.48;8.57;;;;;;;15.28;26.10;98475.31;5002270;28;20089;-57
2022/03/11 08:17:40;;;;;;;30.48;9.10;;;;;;;13.11;27.70;98479.44;5006549;28;20022;-58
2022/03/11 08:20:07;;;;;;;25.17;8.05;;;;;;;11.09;28.48;98476.06;5007919;28;20435;-57
2022/03/11 08:22:34;;;;;;;29.80;8.35;;;;;;;15.20;25.71;98467.78;5006442;28;20130;-58
2022/03/11 08:24:59;;;;;;;27.92;8.27;;;;;;;13.00;28.11;98467.75;5004050;28;20029;-57
2022/03/11 08:27:25;;;;;;;29.13;8.93;;;;;;;14.18;26.45;98469.38;5003538;28;20034;-58
2022/03/11 08:29:50;;;;;;;29.48;8.10;;;;;;;14.25;26.03;98471.63;5006630;28;20127;-58
2022/03/11 08:32:16;;;;;;;28.30;7.60;;;;;;;14.01;26.76;98468.41;5004532;28;20042;-58
2022/03/11 08:34:41;;;;;;;28.73;8.77;;;;;;;13.22;28.06;98468.50;5007032;28;20045;-58
2022/03/11 08:37:06;;;;;;;31.85;8.68;;;;;;;13.49;27.03;98473.44;5005384;28;20566;-59
2022/03/11 08:39:32;;;;;;;22.52;7.50;;;;;;;14.69;25.54;98473.03;5007099;28;20140;-57
2022/03/11 08:41:57;;;;;;;26.70;8.40;;;;;;;12.36;28.07;98473.94;5006019;28;20252;-58
2022/03/11 08:44:23;;;;;;;35.53;8.85;;;;;;;13.00;27.45;98467.75;5006877;28;20060;-58
2022/03/11 08:46:48;;;;;;;25.65;7.57;;;;;;;13.44;26.56;98478.06;5005361;28;20046;-57
2022/03/11 08:49:14;;;;;;;26.75;7.95;;;;;;;14.27;26.39;98461.06;5003952;28;20034;-59
2022/03/11 08:51:41;;;;;;;23.58;7.32;;;;;;;13.43;27.74;98465.88;5004848;28;20041;-59
2022/03/11 08:54:07;;;;;;;31.60;8.57;;;;;;;15.99;25.44;98462.69;5002209;28;20022;-58
2022/03/11 08:56:32;;;;;;;26.30;7.68;;;;;;;12.96;27.41;98464.41;5005440;28;20040;-59
2022/03/11 08:58:58;;;;;;;21.27;7.13;;;;;;;15.79;24.61;98466.41;5008055;28;20034;-58
2022/03/11 09:01:23;;;;;;;26.40;7.63;;;;;;;15.53;24.24;98459.91;5005518;28;20045;-57
2022/03/11 09:03:49;;;;;;;22.90;8.02;;;;;;;14.34;25.84;98472.97;5007046;28;20036;-58
2022/03/11 09:06:14;;;;;;;22.95;7.18;;;;;;;12.87;26.49;98476.13;5006599;28;20041;-58
2022/03/11 09:08:39;;;;;;;24.92;7.80;;;;;;;11.82;27.58;98473.38;5005890;28;20442;-59
2022/03/11 09:11:05;;;;;;;22.00;7.00;;;;;;;12.01;26.83;98463.94;5005183;28;20042;-58
2022/03/11 09:13:31;;;;;;;23.10;6.82;;;;;;;14.29;24.85;98464.47;5005431;28;20108;-58
2022/03/11 09:15:56;;;;;;;23.38;6.93;;;;;;;14.25;23.73;98453.28;5004103;28;20065;-59
2022/03/11 09:18:21;;;;;;;29.73;6.50;;;;;;;12.38;24.20;98462.47;5004958;28;20033;-58
2022/03/11 09:20:47;;;;;;;27.77;6.50;;;;;;;11.57;24.73;98464.72;5005106;28;20053;-57
2022/03/11 09:23:13;;;;;;;21.50;6.50;;;;;;;12.50;24.58;98453.28;5006402;28;20014;-58
2022/03/11 09:25:38;;;;;;;30.38;7.28;;;;;;;11.88;24.67;98454.88;5003796;28;20052;-59
2022/03/11 09:28:07;;;;;;;21.67;6.25;;;;;;;13.05;24.20;98450.06;5004534;28;20021;-56
2022/03/11 09:30:32;;;;;;;27.25;7.10;;;;;;;13.36;23.83;98449.59;5005986;28;20260;-56
2022/03/11 09:32:58;;;;;;;26.35;6.65;;;;;;;12.79;23.91;98438.97;5005799;28;20531;-57
2022/03/11 09:35:24;;;;;;;26.98;7.15;;;;;;;12.61;24.29;98437.97;5005009;28;20088;-57
2022/03/11 09:37:49;;;;;;;25.80;7.57;;;;;;;12.81;23.12;98442.38;5007514;28;20056;-56
2022/03/11 09:40:16;;;;;;;24.50;6.65;;;;;;;14.27;22.77;98434.84;5007869;28;20022;-56
2022/03/11 09:42:42;;;;;;;29.42;7.65;;;;;;;13.88;23.07;98428.81;5009428;28;20132;-57
2022/03/11 09:45:08;;;;;;;27.92;6.90;;;;;;;13.07;23.34;98428.13;5007510;28;20028;-58
2022/03/11 09:47:34;;;;;;;24.33;7.00;;;;;;;13.30;23.36;98436.72;4988242;28;20042;-57
2022/03/11 09:49:59;;;;;;;25.05;7.28;;;;;;;13.62;23.44;98430.06;4988119;28;20038;-56
2022/03/11 09:52:25;;;;;;;30.83;6.90;;;;;;;13.83;23.70;98435.22;5008327;28;20523;-57
2022/03/11 09:54:50;;;;;;;34.35;8.05;;;;;;;13.88;23.34;98433.22;5007136;28;20479;-58
2022/03/11 09:57:22;;;;;;;26.92;7.20;;;;;;;14.74;22.70;98434.28;5008554;28;20124;-56
2022/03/11 09:59:48;;;;;;;22.35;6.50;;;;;;;15.26;22.23;98425.44;5006573;28;20036;-57
2022/03/11 10:02:17;;;;;;;25.10;7.22;;;;;;;14.92;22.81;98426.34;5008871;28;20029;-57
2022/03/11 10:04:50;;;;;;;31.95;7.63;;;;;;;15.10;22.35;98414.06;5008208;28;20026;-56
2022/03/11 10:07:23;;;;;;;26.85;6.75;;;;;;;14.51;23.09;98419.63;5006267;28;20057;-56
2022/03/11 10:09:48;;;;;;;;;;;;;;;12.71;23.66;98423.56;5007104;28;20091;-57
2022/03/11 10:12:21;;;;;;;28.57;6.60;;;;;;;11.99;23.70;98418.72;5008011;28;19935;-60
2022/03/11 10:14:58;;;;;;;39.30;7.85;;;;;;;13.32;23.11;98428.84;5007157;28;20360;-59
2022/03/11 10:17:25;;;;;;;23.52;6.18;;;;;;;13.64;22.00;98415.09;5007393;28;20128;-56
2022/03/11 10:20:02;;;;;;;23.33;6.32;;;;;;;14.58;22.09;98414.97;5007665;28;20018;-58
2022/03/11 10:22:28;;;;;;;22.85;6.53;;;;;;;12.14;22.70;98412.84;4989463;28;20034;-58
2022/03/11 10:24:55;;;;;;;31.95;7.40;;;;;;;11.92;22.69;98423.31;4987785;28;20030;-56
2022/03/11 10:27:23;;;;;;;27.65;6.75;;;;;;;11.92;22.44;98404.19;4989091;28;20042;-58
2022/03/11 10:29:49;;;;;;;25.63;6.55;;;;;;;11.85;23.11;98410.53;4987686;28;20184;-58
2022/03/11 10:32:21;;;;;;;25.38;7.15;;;;;;;11.88;23.29;98402.59;4986819;28;20100;-57
2022/03/11 10:34:46;;;;;;;38.90;7.90;;;;;;;12.78;22.51;98403.22;4989299;28;20046;-57
2022/03/11 10:37:12;;;;;;;28.42;7.30;;;;;;;12.68;22.36;98401.91;4985393;28;20045;-57
2022/03/11 10:39:45;;;;;;;27.17;6.13;;;;;;;12.77;23.39;98411.97;4986982;28;20110;-58
2022/03/11 10:42:13;;;;;;;28.52;6.68;;;;;;;13.16;22.75;98408.53;4985673;28;20137;-57
2022/03/11 10:45:13;;;;;;;31.63;6.88;;;;;;;12.23;22.48;98411.63;4986987;28;20109;-57
2022/03/11 10:47:41;;;;;;;27.95;7.78;;;;;;;13.07;24.08;98398.47;4985245;28;20111;-57
2022/03/11 10:50:12;;;;;;;29.75;7.18;;;;;;;12.72;24.03;98412.19;5005285;28;20468;-56
2022/03/11 10:52:47;;;;;;;27.45;6.82;;;;;;;13.22;24.30;98413.50;4988240;28;20042;-57
2022/03/11 10:55:20;;;;;;;30.90;7.10;;;;;;;11.81;23.26;98408.97;4987592;28;20054;-56
2022/03/11 10:57:47;;;;;;;27.48;6.85;;;;;;;12.85;23.18;98399.44;4989328;28;20042;-56
2022/03/11 11:00:16;;;;;;;23.48;5.88;;;;;;;12.39;23.44;98404.03;4985939;28;20129;-58
2022/03/11 11:02:44;;;;;;;32.53;6.93;;;;;;;11.90;23.30;98398.19;4987988;28;20092;-56
2022/03/11 11:05:11;;;;;;;26.50;6.53;;;;;;;11.18;24.29;98396.56;4988853;28;20038;-57
2022/03/11 11:07:36;;;;;;;30.10;7.50;;;;;;;11.35;24.09;98399.38;4987025;28;20109;-57
2022/03/11 11:10:02;;;;;;;28.08;6.70;;;;;;;12.22;23.21;98399.50;4988068;28;20037;-58
2022/03/11 11:12:28;;;;;;;31.83;7.32;;;;;;;12.29;23.25;98389.59;4987498;28;20049;-56
2022/03/11 11:14:54;;;;;;;35.53;8.10;;;;;;;11.52;23.96;98383.06;4984391;28;20025;-56
2022/03/11 11:17:20;;;;;;;34.30;7.95;;;;;;;11.72;23.81;98377.03;4987445;28;20038;-56
2022/03/11 11:19:47;;;;;;;30.90;7.18;;;;;;;12.15;23.49;98372.75;4986992;28;20041;-58
2022/03/11 11:22:13;;;;;;;31.10;6.78;;;;;;;12.62;24.00;98378.63;4986200;28;20041;-57